Time;durP1;ratioP1;P1;durP2;ratioP2;P2;SDS_P1;SDS_P2;PMS_P1;PMS_P2;Temp;Humidity;BMP_temperature;BMP_pressure;BME280_temperature;BME280_humidity;BME280_pressure;Samples;Min_cycle;Max_cycle;Signal;HPM_P1;HPM_P2
2022/06/01 00:01:48;;;;;;;115.97;67.60;;;;;;;;;;5053373;28;20029;-69
2022/06/01 00:04:15;;;;;;;111.82;70.03;;;;;;;;;;5053810;28;20027;-68
2022/06/01 00:06:41;;;;;;;108.07;66.18;;;;;;;;;;5056534;28;20064;-68
2022/06/01 00:09:07;;;;;;;106.45;66.97;;;;;;;;;;5056033;28;20024;-67
2022/06/01 00:11:33;;;;;;;112.07;68.72;;;;;;;;;;5055230;28;20033;-67
2022/06/01 00:13:59;;;;;;;105.40;68.68;;;;;;;;;;5052171;28;20021;-67
2022/06/01 00:16:26;;;;;;;115.70;68.47;;;;;;;;;;5054738;28;20119;-68
2022/06/01 00:18:51;;;;;;;106.25;67.35;;;;;;;;;;5053528;28;20212;-68
2022/06/01 00:21:17;;;;;;;106.63;67.85;;;;;;;;;;5052833;28;20115;-68
2022/06/01 00:23:43;;;;;;;104.18;66.25;;;;;;;;;;5058875;28;20413;-67
2022/06/01 00:26:09;;;;;;;103.63;63.92;;;;;;;;;;5053612;28;20071;-67
2022/06/01 00:28:36;;;;;;;92.38;60.03;;;;;;;;;;5054493;28;20116;-67
2022/06/01 00:31:03;;;;;;;95.88;61.08;;;;;;;;;;5053837;28;20021;-67
2022/06/01 00:33:30;;;;;;;95.55;59.80;;;;;;;;;;5051371;28;20446;-67
2022/06/01 00:35:56;;;;;;;95.82;60.67;;;;;;;;;;5048906;28;20311;-67
2022/06/01 00:38:22;;;;;;;96.53;59.45;;;;;;;;;;5050154;28;20010;-67
2022/06/01 00:40:48;;;;;;;100.13;62.42;;;;;;;;;;5049964;28;20029;-68
2022/06/01 00:43:20;;;;;;;101.05;60.58;;;;;;;;;;5051174;28;20086;-67
2022/06/01 00:45:46;;;;;;;92.15;58.28;;;;;;;;;;5054269;28;20037;-69
2022/06/01 00:48:13;;;;;;;94.13;58.33;;;;;;;;;;5049165;28;20033;-68
2022/06/01 00:50:40;;;;;;;95.47;59.53;;;;;;;;;;5052815;28;20478;-67
2022/06/01 00:53:09;;;;;;;87.57;56.75;;;;;;;;;;5055424;28;20029;-66
2022/06/01 00:55:46;;;;;;;83.40;52.35;;;;;;;;;;5048023;28;20044;-68
2022/06/01 00:58:18;;;;;;;73.90;47.83;;;;;;;;;;5053047;28;20020;-67
2022/06/01 01:00:46;;;;;;;73.20;47.28;;;;;;;;;;5057158;28;20033;-68
2022/06/01 01:03:12;;;;;;;68.63;44.75;;;;;;;;;;5050521;28;20079;-68
2022/06/01 01:05:40;;;;;;;68.68;45.90;;;;;;;;;;5051532;28;20029;-68
2022/06/01 01:08:06;;;;;;;70.47;43.97;;;;;;;;;;5047908;28;20059;-69
2022/06/01 01:10:33;;;;;;;61.45;41.80;;;;;;;;;;5050469;28;20020;-68
2022/06/01 01:13:01;;;;;;;63.17;38.45;;;;;;;;;;5048940;28;20498;-68
2022/06/01 01:15:55;;;;;;;64.75;39.53;;;;;;;;;;5058017;28;20353;-68
2022/06/01 01:18:26;;;;;;;57.15;36.75;;;;;;;;;;5050931;28;20100;-68
2022/06/01 01:21:03;;;;;;;53.53;35.05;;;;;;;;;;5049131;28;20021;-67
2022/06/01 01:23:38;;;;;;;46.53;32.00;;;;;;;;;;5050146;28;20021;-67
2022/06/01 01:26:06;;;;;;;50.15;33.85;;;;;;;;;;5050466;28;20086;-69
2022/06/01 01:28:32;;;;;;;42.67;29.77;;;;;;;;;;5060502;28;20123;-68
2022/06/01 01:31:08;;;;;;;44.95;30.92;;;;;;;;;;5059228;28;20089;-68
2022/06/01 01:33:34;;;;;;;48.30;30.90;;;;;;;;;;5052464;28;20024;-68
2022/06/01 01:36:06;;;;;;;44.13;30.08;;;;;;;;;;5059512;28;20401;-68
2022/06/01 01:38:44;;;;;;;47.08;29.88;;;;;;;;;;5058527;28;20029;-67
2022/06/01 01:41:12;;;;;;;38.78;26.90;;;;;;;;;;5048073;28;20049;-67
2022/06/01 01:43:42;;;;;;;44.72;28.45;;;;;;;;;;5025456;28;20075;-68
2022/06/01 01:46:08;;;;;;;46.90;28.27;;;;;;;;;;5038816;28;20025;-67
2022/06/01 01:48:35;;;;;;;47.72;29.08;;;;;;;;;;5016832;28;20030;-68
2022/06/01 01:51:02;;;;;;;47.95;29.98;;;;;;;;;;5014626;28;20036;-68
2022/06/01 01:53:29;;;;;;;51.35;32.40;;;;;;;;;;5024033;28;20021;-68
2022/06/01 01:56:08;;;;;;;52.70;32.17;;;;;;;;;;5032314;28;20100;-68
2022/06/01 01:58:42;;;;;;;49.65;33.40;;;;;;;;;;5031072;28;20037;-68
2022/06/01 02:01:19;;;;;;;56.28;34.83;;;;;;;;;;5026489;28;20037;-67
2022/06/01 02:03:48;;;;;;;54.38;33.15;;;;;;;;;;5035128;28;20128;-66
2022/06/01 02:06:26;;;;;;;54.22;32.97;;;;;;;;;;5038866;28;20021;-67
2022/06/01 02:09:06;;;;;;;50.03;30.38;;;;;;;;;;5032769;28;20026;-66
2022/06/01 02:14:37;;;;;;;35.28;24.17;;;;;;;;;;5031531;28;20051;-67
2022/06/01 02:17:03;;;;;;;;;;;;;;;;;;5020264;28;20099;-67
2022/06/01 02:19:34;;;;;;;37.70;22.92;;;;;;;;;;5039100;28;19918;-67
2022/06/01 02:22:00;;;;;;;31.63;22.45;;;;;;;;;;5032574;28;20029;-67
2022/06/01 02:24:26;;;;;;;32.35;22.13;;;;;;;;;;5031037;28;20437;-67
2022/06/01 02:26:53;;;;;;;32.33;21.35;;;;;;;;;;5013279;28;20037;-67
2022/06/01 02:29:22;;;;;;;30.80;20.45;;;;;;;;;;5025799;28;20045;-67
2022/06/01 02:31:50;;;;;;;33.22;22.20;;;;;;;;;;5031208;28;20149;-67
2022/06/01 02:34:16;;;;;;;29.75;21.08;;;;;;;;;;5026911;28;20537;-67
2022/06/01 02:36:43;;;;;;;30.83;20.60;;;;;;;;;;5025384;28;20038;-68
2022/06/01 02:39:11;;;;;;;31.30;22.17;;;;;;;;;;5037658;28;20128;-68
2022/06/01 02:44:22;;;;;;;33.45;22.65;;;;;;;;;;5029485;28;20960;-68
2022/06/01 02:46:48;;;;;;;36.28;22.90;;;;;;;;;;5028538;28;20116;-67
2022/06/01 02:49:17;;;;;;;35.10;23.98;;;;;;;;;;5032385;28;20120;-67
2022/06/01 02:51:43;;;;;;;35.83;23.75;;;;;;;;;;5009750;28;20037;-67
2022/06/01 02:54:09;;;;;;;37.08;24.83;;;;;;;;;;5024587;28;20026;-67
2022/06/01 02:56:35;;;;;;;42.75;26.63;;;;;;;;;;5013189;28;20025;-67
2022/06/01 02:59:01;;;;;;;42.13;27.40;;;;;;;;;;5017988;28;20061;-67
2022/06/01 03:01:27;;;;;;;43.95;29.27;;;;;;;;;;5035658;28;20061;-67
2022/06/01 03:03:53;;;;;;;40.35;28.92;;;;;;;;;;5038539;28;20060;-67
2022/06/01 03:06:20;;;;;;;48.90;30.55;;;;;;;;;;5012527;28;20029;-67
2022/06/01 03:08:46;;;;;;;47.20;29.88;;;;;;;;;;5036978;28;20044;-68
2022/06/01 03:11:13;;;;;;;39.83;26.75;;;;;;;;;;5023985;28;20045;-66
2022/06/01 03:13:39;;;;;;;42.63;28.25;;;;;;;;;;5014727;28;20037;-67
2022/06/01 03:16:05;;;;;;;38.05;24.33;;;;;;;;;;5034361;28;20537;-68
2022/06/01 03:18:31;;;;;;;41.63;26.08;;;;;;;;;;5035567;28;20025;-66
2022/06/01 03:20:58;;;;;;;37.95;25.55;;;;;;;;;;5030217;28;20036;-67
2022/06/01 03:23:24;;;;;;;31.83;21.48;;;;;;;;;;5036981;28;20773;-67
2022/06/01 03:25:51;;;;;;;32.83;20.83;;;;;;;;;;5008829;28;20033;-67
2022/06/01 03:28:17;;;;;;;25.65;18.30;;;;;;;;;;5030601;28;20048;-67
2022/06/01 03:30:43;;;;;;;26.05;17.88;;;;;;;;;;5031412;28;20687;-66
2022/06/01 03:33:10;;;;;;;18.77;14.13;;;;;;;;;;5035786;28;20037;-68
2022/06/01 03:35:37;;;;;;;19.92;14.07;;;;;;;;;;5030366;28;20039;-68
2022/06/01 03:38:03;;;;;;;22.73;15.63;;;;;;;;;;5034264;28;20113;-68
2022/06/01 03:40:31;;;;;;;25.92;16.85;;;;;;;;;;5030671;28;20072;-68
2022/06/01 03:42:57;;;;;;;25.45;17.77;;;;;;;;;;5055048;28;20298;-69
2022/06/01 03:48:08;;;;;;;28.02;20.77;;;;;;;;;;5047026;28;20044;-67
2022/06/01 03:50:35;;;;;;;37.30;23.65;;;;;;;;;;5051117;28;20086;-69
2022/06/01 03:53:02;;;;;;;40.55;24.77;;;;;;;;;;5047847;28;20052;-68
2022/06/01 03:55:28;;;;;;;41.15;25.92;;;;;;;;;;5054238;28;20036;-67
2022/06/01 03:57:54;;;;;;;41.33;27.40;;;;;;;;;;5047672;28;20033;-67
2022/06/01 04:00:22;;;;;;;42.40;26.88;;;;;;;;;;5047022;28;20020;-67
2022/06/01 04:02:48;;;;;;;44.60;28.58;;;;;;;;;;5051872;28;20032;-67
2022/06/01 04:05:15;;;;;;;47.35;28.95;;;;;;;;;;5048665;28;20029;-67
2022/06/01 04:07:41;;;;;;;57.42;29.90;;;;;;;;;;5051985;28;20548;-66
2022/06/01 04:10:08;;;;;;;52.03;29.00;;;;;;;;;;5058155;28;20049;-68
2022/06/01 04:12:34;;;;;;;49.88;30.65;;;;;;;;;;5044130;28;20040;-67
2022/06/01 04:15:00;;;;;;;54.25;30.40;;;;;;;;;;5055954;28;20034;-67
2022/06/01 04:17:26;;;;;;;63.17;32.22;;;;;;;;;;5052522;28;20884;-67
2022/06/01 04:19:52;;;;;;;59.80;33.15;;;;;;;;;;5047819;28;20155;-69
2022/06/01 04:22:18;;;;;;;61.17;32.78;;;;;;;;;;5046491;28;20187;-68
2022/06/01 04:24:45;;;;;;;69.45;34.35;;;;;;;;;;5054252;28;20105;-67
2022/06/01 04:27:11;;;;;;;62.42;35.47;;;;;;;;;;5053480;28;20044;-66
2022/06/01 04:29:37;;;;;;;62.40;34.92;;;;;;;;;;5052867;28;20036;-68
2022/06/01 04:32:05;;;;;;;63.58;35.63;;;;;;;;;;5052043;28;20162;-67
2022/06/01 04:34:31;;;;;;;62.08;34.17;;;;;;;;;;5052404;28;20082;-67
2022/06/01 04:36:57;;;;;;;45.42;29.33;;;;;;;;;;5044931;28;20024;-68
2022/06/01 04:39:24;;;;;;;40.03;27.35;;;;;;;;;;5056047;28;20154;-67
2022/06/01 04:41:50;;;;;;;29.75;22.65;;;;;;;;;;5042176;28;20360;-66
2022/06/01 04:44:16;;;;;;;26.92;19.77;;;;;;;;;;5034839;28;20029;-67
2022/06/01 04:46:43;;;;;;;23.73;16.80;;;;;;;;;;5034892;28;20044;-67
2022/06/01 04:49:09;;;;;;;18.08;14.07;;;;;;;;;;5030517;28;20057;-67
2022/06/01 04:51:35;;;;;;;14.25;11.93;;;;;;;;;;5012427;28;20091;-67
2022/06/01 04:54:01;;;;;;;13.35;11.38;;;;;;;;;;5031103;28;20025;-68
2022/06/01 04:56:27;;;;;;;12.23;9.25;;;;;;;;;;5036778;28;20029;-68
2022/06/01 04:58:53;;;;;;;10.52;9.00;;;;;;;;;;5036564;28;20041;-67
2022/06/01 05:01:19;;;;;;;10.88;8.50;;;;;;;;;;5037110;28;20116;-66
2022/06/01 05:03:46;;;;;;;10.25;8.02;;;;;;;;;;5036815;28;20041;-68
2022/06/01 05:06:12;;;;;;;9.30;7.90;;;;;;;;;;5007888;28;20044;-68
2022/06/01 05:08:38;;;;;;;10.85;8.15;;;;;;;;;;4992759;28;20084;-68
2022/06/01 05:11:04;;;;;;;11.88;7.70;;;;;;;;;;5028256;28;20061;-67
2022/06/01 05:13:30;;;;;;;9.13;6.22;;;;;;;;;;5039500;28;20091;-69
2022/06/01 05:15:57;;;;;;;7.93;5.50;;;;;;;;;;5032493;28;20033;-68
2022/06/01 05:18:24;;;;;;;7.30;5.57;;;;;;;;;;5031513;28;20025;-68
2022/06/01 05:20:50;;;;;;;5.53;4.60;;;;;;;;;;4986881;28;20399;-68
2022/06/01 05:23:17;;;;;;;5.68;4.30;;;;;;;;;;5027660;28;20098;-67
2022/06/01 05:25:44;;;;;;;5.13;4.30;;;;;;;;;;5031722;28;20029;-68
2022/06/01 05:28:11;;;;;;;4.82;3.83;;;;;;;;;;5031232;28;20057;-69
2022/06/01 05:30:37;;;;;;;5.90;3.10;;;;;;;;;;5026826;28;20044;-68
2022/06/01 05:33:03;;;;;;;4.38;3.13;;;;;;;;;;5027698;28;20029;-68
2022/06/01 05:35:29;;;;;;;3.78;2.40;;;;;;;;;;5027041;28;20030;-68
2022/06/01 05:37:55;;;;;;;3.63;2.40;;;;;;;;;;5027572;28;20139;-68
2022/06/01 05:40:21;;;;;;;3.20;2.20;;;;;;;;;;5015661;28;21625;-67
2022/06/01 05:42:47;;;;;;;3.83;2.40;;;;;;;;;;5035109;28;20489;-67
2022/06/01 05:45:13;;;;;;;3.85;2.88;;;;;;;;;;5048108;28;20036;-67
2022/06/01 05:47:40;;;;;;;3.13;2.40;;;;;;;;;;5056126;28;20036;-68
2022/06/01 05:50:06;;;;;;;7.57;2.45;;;;;;;;;;5055944;28;20032;-67
2022/06/01 05:52:33;;;;;;;4.43;2.67;;;;;;;;;;5053435;28;20040;-68
2022/06/01 05:54:59;;;;;;;4.55;2.90;;;;;;;;;;5051060;28;20029;-68
2022/06/01 05:57:25;;;;;;;5.70;2.67;;;;;;;;;;5053471;28;20024;-67
2022/06/01 05:59:51;;;;;;;3.47;2.58;;;;;;;;;;5049586;28;20025;-67
2022/06/01 06:02:17;;;;;;;3.42;2.53;;;;;;;;;;5045500;28;20039;-67
2022/06/01 06:04:42;;;;;;;3.45;2.58;;;;;;;;;;5054522;28;20370;-67
2022/06/01 06:07:08;;;;;;;4.72;2.95;;;;;;;;;;5054455;28;20033;-68
2022/06/01 06:09:34;;;;;;;5.50;2.80;;;;;;;;;;5051792;28;20501;-67
2022/06/01 06:12:00;;;;;;;7.25;2.60;;;;;;;;;;5047628;28;20036;-70
2022/06/01 06:14:26;;;;;;;3.97;2.60;;;;;;;;;;5040996;28;20553;-66
2022/06/01 06:16:52;;;;;;;3.75;2.75;;;;;;;;;;5044045;28;20234;-65
2022/06/01 06:19:20;;;;;;;5.75;3.30;;;;;;;;;;5049279;28;20071;-68
2022/06/01 06:21:47;;;;;;;9.73;3.22;;;;;;;;;;5038030;28;20108;-67
2022/06/01 06:24:15;;;;;;;5.65;3.63;;;;;;;;;;5037892;28;20121;-67
2022/06/01 06:26:45;;;;;;;5.93;4.00;;;;;;;;;;5050805;28;20032;-66
2022/06/01 06:29:12;;;;;;;6.78;3.20;;;;;;;;;;5050640;28;20056;-67
2022/06/01 06:31:39;;;;;;;5.15;3.38;;;;;;;;;;5050696;28;20067;-66
2022/06/01 06:34:05;;;;;;;6.88;3.70;;;;;;;;;;5052485;28;20075;-68
2022/06/01 06:36:31;;;;;;;5.85;3.30;;;;;;;;;;5049549;28;20037;-67
2022/06/01 06:38:57;;;;;;;4.32;3.22;;;;;;;;;;5048047;28;20548;-67
2022/06/01 06:41:24;;;;;;;6.20;3.38;;;;;;;;;;5060978;28;20044;-67
2022/06/01 06:43:51;;;;;;;4.72;2.92;;;;;;;;;;5030304;28;20080;-68
2022/06/01 06:46:19;;;;;;;7.97;3.03;;;;;;;;;;5030990;28;20033;-69
2022/06/01 06:48:46;;;;;;;6.07;3.60;;;;;;;;;;5031768;28;20380;-67
2022/06/01 06:51:12;;;;;;;7.57;3.30;;;;;;;;;;5027105;28;20074;-68
2022/06/01 06:53:38;;;;;;;6.28;3.50;;;;;;;;;;5026547;28;20503;-68
2022/06/01 06:56:05;;;;;;;5.55;3.10;;;;;;;;;;5030182;28;20040;-67
2022/06/01 06:58:31;;;;;;;6.38;3.35;;;;;;;;;;5025754;28;20490;-67
2022/06/01 07:00:58;;;;;;;4.35;3.45;;;;;;;;;;5030468;28;20054;-68
2022/06/01 07:03:24;;;;;;;5.70;3.65;;;;;;;;;;5017215;28;20052;-67
2022/06/01 07:06:08;;;;;;;8.40;3.45;;;;;;;;;;5030932;28;20044;-68
2022/06/01 07:08:34;;;;;;;6.50;3.58;;;;;;;;;;5029271;28;20159;-68
2022/06/01 07:11:00;;;;;;;7.78;4.10;;;;;;;;;;5031160;28;20178;-75
2022/06/01 07:13:27;;;;;;;5.75;4.22;;;;;;;;;;5025687;28;20029;-66
2022/06/01 07:16:20;;;;;;;7.90;4.03;;;;;;;;;;5022565;28;20021;-68
2022/06/01 07:18:49;;;;;;;6.45;3.85;;;;;;;;;;5022795;28;20080;-67
2022/06/01 07:21:16;;;;;;;6.10;3.80;;;;;;;;;;4992053;28;20546;-67
2022/06/01 07:23:43;;;;;;;5.82;3.80;;;;;;;;;;5027736;28;20029;-67
2022/06/01 07:26:10;;;;;;;5.60;3.28;;;;;;;;;;5026535;28;20026;-68
2022/06/01 07:28:37;;;;;;;5.53;3.80;;;;;;;;;;5028747;28;20522;-69
2022/06/01 07:31:04;;;;;;;5.38;3.05;;;;;;;;;;5017828;28;20045;-67
2022/06/01 07:33:30;;;;;;;5.07;3.10;;;;;;;;;;5019791;28;20052;-67
2022/06/01 07:36:00;;;;;;;4.45;3.45;;;;;;;;;;5033594;28;20029;-66
2022/06/01 07:43:58;;;;;;;5.68;3.55;;;;;;;;;;5027579;28;20170;-67
2022/06/01 07:46:25;;;;;;;6.63;3.10;;;;;;;;;;5015865;28;20449;-67
2022/06/01 07:48:52;;;;;;;4.40;2.72;;;;;;;;;;5029137;28;20025;-68
2022/06/01 07:51:20;;;;;;;3.78;2.38;;;;;;;;;;5040329;28;20037;-67
2022/06/01 07:53:46;;;;;;;6.90;2.70;;;;;;;;;;5035636;28;20046;-69
2022/06/01 07:56:12;;;;;;;5.45;2.50;;;;;;;;;;5028973;28;20025;-67
2022/06/01 07:58:38;;;;;;;4.28;2.60;;;;;;;;;;5033545;28;20093;-67
2022/06/01 08:01:05;;;;;;;4.70;2.63;;;;;;;;;;5037633;28;20025;-68
2022/06/01 08:03:31;;;;;;;4.60;2.50;;;;;;;;;;5033395;28;20039;-68
2022/06/01 08:05:57;;;;;;;3.55;2.40;;;;;;;;;;5019617;28;20028;-67
2022/06/01 08:08:23;;;;;;;4.35;2.05;;;;;;;;;;5031075;28;20589;-67
2022/06/01 08:10:49;;;;;;;3.10;2.03;;;;;;;;;;5039067;28;20025;-67
2022/06/01 08:13:15;;;;;;;3.08;1.75;;;;;;;;;;5029788;28;20040;-68
2022/06/01 08:15:46;;;;;;;4.60;1.60;;;;;;;;;;5036562;28;20017;-65
2022/06/01 08:18:15;;;;;;;3.15;1.52;;;;;;;;;;5025555;28;20398;-68
2022/06/01 08:20:42;;;;;;;4.93;1.70;;;;;;;;;;5035522;28;20025;-66
2022/06/01 08:23:08;;;;;;;2.85;2.08;;;;;;;;;;5033091;28;20025;-65
2022/06/01 08:25:35;;;;;;;5.03;1.58;;;;;;;;;;5018280;28;20525;-67
2022/06/01 08:28:01;;;;;;;7.75;2.03;;;;;;;;;;5038071;28;20036;-67
2022/06/01 08:30:28;;;;;;;2.55;1.83;;;;;;;;;;5016351;28;21425;-66
2022/06/01 08:32:55;;;;;;;3.35;1.70;;;;;;;;;;5028737;28;20025;-67
2022/06/01 08:35:23;;;;;;;2.45;1.67;;;;;;;;;;5036488;28;20025;-67
2022/06/01 08:37:49;;;;;;;3.55;1.70;;;;;;;;;;5032267;28;20102;-67
2022/06/01 08:40:19;;;;;;;2.95;1.75;;;;;;;;;;5034834;28;20052;-67
2022/06/01 08:42:57;;;;;;;2.83;1.80;;;;;;;;;;5018367;28;20047;-67
2022/06/01 08:45:25;;;;;;;3.08;1.95;;;;;;;;;;5030712;28;20060;-67
2022/06/01 08:47:51;;;;;;;3.78;1.60;;;;;;;;;;5029177;28;20104;-70
2022/06/01 08:50:27;;;;;;;5.30;2.00;;;;;;;;;;5031937;28;20048;-67
2022/06/01 08:52:55;;;;;;;3.05;1.50;;;;;;;;;;5021613;28;20033;-68
2022/06/01 08:55:21;;;;;;;5.13;2.33;;;;;;;;;;5027857;28;20022;-67
2022/06/01 08:57:57;;;;;;;3.33;1.60;;;;;;;;;;5037568;28;20037;-68
2022/06/01 09:00:24;;;;;;;4.20;1.90;;;;;;;;;;5033745;28;20017;-67
2022/06/01 09:03:13;;;;;;;2.88;1.52;;;;;;;;;;5027255;28;20037;-66
2022/06/01 09:05:39;;;;;;;4.05;1.65;;;;;;;;;;5034651;28;20094;-67
2022/06/01 09:08:09;;;;;;;5.13;1.60;;;;;;;;;;5031341;28;20044;-67
2022/06/01 09:10:56;;;;;;;2.47;1.50;;;;;;;;;;5025295;28;20041;-67
2022/06/01 09:13:24;;;;;;;2.30;1.50;;;;;;;;;;5026637;28;20568;-66
2022/06/01 09:16:00;;;;;;;3.15;1.40;;;;;;;;;;5029627;28;20076;-66
2022/06/01 09:18:28;;;;;;;2.10;1.55;;;;;;;;;;5023369;28;20022;-67
2022/06/01 09:23:40;;;;;;;5.95;2.13;;;;;;;;;;5019816;28;20048;-67
2022/06/01 09:26:06;;;;;;;3.30;1.50;;;;;;;;;;5028402;28;20360;-65
2022/06/01 09:28:37;;;;;;;2.63;1.40;;;;;;;;;;5010235;28;20359;-68
2022/06/01 09:31:18;;;;;;;3.67;1.50;;;;;;;;;;5027342;28;20032;-68
2022/06/01 09:33:44;;;;;;;8.10;1.70;;;;;;;;;;5026898;28;20044;-67
2022/06/01 09:36:10;;;;;;;3.95;1.80;;;;;;;;;;5026340;28;20501;-68
2022/06/01 09:38:40;;;;;;;9.10;2.10;;;;;;;;;;5028084;28;20032;-69
2022/06/01 09:41:11;;;;;;;4.43;1.45;;;;;;;;;;5026548;28;20021;-65
2022/06/01 09:43:41;;;;;;;3.72;1.73;;;;;;;;;;5028646;28;20063;-67
2022/06/01 09:46:14;;;;;;;4.35;1.63;;;;;;;;;;5019061;28;20487;-67
2022/06/01 09:48:45;;;;;;;3.00;1.60;;;;;;;;;;5032317;28;20523;-66
2022/06/01 09:51:19;;;;;;;4.78;1.55;;;;;;;;;;5027208;28;20060;-66
2022/06/01 09:53:46;;;;;;;1.60;1.13;;;;;;;;;;5032112;28;20117;-64
2022/06/01 09:56:16;;;;;;;2.08;1.40;;;;;;;;;;5032184;28;20490;-68
2022/06/01 10:07:05;;;;;;;4.13;1.50;;;;;;;;;;5025551;28;20078;-67
2022/06/01 10:09:32;;;;;;;3.33;1.60;;;;;;;;;;5031839;28;20041;-66
2022/06/01 10:11:58;;;;;;;4.28;1.40;;;;;;;;;;5033056;28;20028;-66
2022/06/01 10:14:27;;;;;;;6.40;1.40;;;;;;;;;;5029742;28;20053;-65
2022/06/01 10:17:00;;;;;;;3.58;1.50;;;;;;;;;;5037599;28;20059;-66
2022/06/01 10:19:35;;;;;;;2.95;1.15;;;;;;;;;;5033270;28;20041;-66
2022/06/01 10:22:05;;;;;;;2.45;1.20;;;;;;;;;;5023499;28;20175;-65
2022/06/01 10:24:35;;;;;;;2.47;1.45;;;;;;;;;;5022394;28;20040;-66
2022/06/01 10:27:02;;;;;;;3.50;1.63;;;;;;;;;;5036166;28;20079;-65
2022/06/01 10:29:48;;;;;;;4.57;1.55;;;;;;;;;;5036583;28;20044;-66
2022/06/01 10:32:30;;;;;;;4.50;1.60;;;;;;;;;;5043600;28;20041;-67
2022/06/01 10:35:05;;;;;;;3.92;1.35;;;;;;;;;;5017261;28;20028;-67
2022/06/01 10:37:37;;;;;;;3.78;1.40;;;;;;;;;;5036233;28;20171;-66
2022/06/01 10:40:03;;;;;;;2.63;1.15;;;;;;;;;;5025610;28;20120;-64
2022/06/01 10:45:33;;;;;;;6.45;2.25;;;;;;;;;;5050700;28;20051;-66
2022/06/01 10:48:08;;;;;;;2.55;1.38;;;;;;;;;;5049399;28;20033;-66
2022/06/01 10:50:48;;;;;;;3.75;1.75;;;;;;;;;;5041460;28;20036;-67
2022/06/01 10:53:14;;;;;;;;;;;;;;;;;;5047778;28;20034;-67
2022/06/01 10:55:42;;;;;;;3.05;1.20;;;;;;;;;;5050045;28;19999;-64
2022/06/01 10:58:10;;;;;;;3.58;1.58;;;;;;;;;;5050693;28;20086;-66
2022/06/01 11:00:40;;;;;;;3.58;1.50;;;;;;;;;;5052569;28;20033;-68
2022/06/01 11:03:06;;;;;;;2.72;1.65;;;;;;;;;;5059874;28;20086;-66
2022/06/01 11:05:46;;;;;;;2.28;1.52;;;;;;;;;;5050419;28;20025;-67
2022/06/01 11:08:44;;;;;;;4.18;1.20;;;;;;;;;;5051574;28;20117;-66
2022/06/01 11:11:13;;;;;;;2.17;1.27;;;;;;;;;;5012043;28;20090;-66
2022/06/01 11:14:09;;;;;;;3.15;1.20;;;;;;;;;;5053196;28;20029;-65
2022/06/01 11:16:53;;;;;;;5.13;1.65;;;;;;;;;;5039150;28;20036;-66
2022/06/01 11:19:22;;;;;;;3.72;2.10;;;;;;;;;;5051691;28;20041;-66
2022/06/01 11:22:07;;;;;;;6.25;2.30;;;;;;;;;;5046324;28;20104;-63
2022/06/01 11:24:37;;;;;;;3.67;1.90;;;;;;;;;;5045058;28;20025;-67
2022/06/01 11:27:09;;;;;;;3.20;2.58;;;;;;;;;;5039564;28;20576;-65
2022/06/01 11:29:35;;;;;;;6.13;2.90;;;;;;;;;;5042810;28;20047;-66
2022/06/01 11:32:03;;;;;;;7.72;2.60;;;;;;;;;;5043129;28;20037;-65
2022/06/01 11:34:45;;;;;;;6.82;2.40;;;;;;;;;;5046661;28;20823;-65
2022/06/01 11:37:11;;;;;;;3.00;2.25;;;;;;;;;;5049024;28;20028;-66
2022/06/01 11:39:37;;;;;;;4.20;2.75;;;;;;;;;;5038595;28;20409;-68
2022/06/01 11:42:03;;;;;;;5.82;3.00;;;;;;;;;;5037544;28;20045;-65
2022/06/01 11:44:36;;;;;;;3.25;2.85;;;;;;;;;;5018882;28;20041;-64
2022/06/01 11:47:05;;;;;;;4.13;2.60;;;;;;;;;;5022586;28;20652;-65
2022/06/01 11:49:31;;;;;;;5.47;1.88;;;;;;;;;;5000484;28;20503;-66
2022/06/01 11:52:12;;;;;;;4.28;1.95;;;;;;;;;;5024124;28;20529;-66
2022/06/01 11:54:38;;;;;;;5.13;2.60;;;;;;;;;;5022627;28;20087;-66
2022/06/01 11:57:17;;;;;;;6.68;2.40;;;;;;;;;;5021058;28;20445;-67
2022/06/01 11:59:52;;;;;;;2.05;1.80;;;;;;;;;;5024305;28;20491;-67
2022/06/01 12:02:20;;;;;;;2.88;1.90;;;;;;;;;;5025923;28;20029;-65
2022/06/01 12:04:52;;;;;;;3.20;1.70;;;;;;;;;;5018029;28;20218;-67
2022/06/01 12:07:22;;;;;;;3.25;1.75;;;;;;;;;;5022071;28;20032;-65
2022/06/01 12:09:48;;;;;;;;;;;;;;;;;;5017137;28;20030;-66
2022/06/01 12:12:26;;;;;;;10.15;2.50;;;;;;;;;;5023185;28;19929;-65
2022/06/01 12:15:11;;;;;;;3.28;2.22;;;;;;;;;;5021769;28;20112;-65
2022/06/01 12:17:37;;;;;;;3.97;1.50;;;;;;;;;;5017032;28;20033;-65
2022/06/01 12:20:30;;;;;;;3.72;1.50;;;;;;;;;;5020834;28;20171;-66
2022/06/01 12:28:47;;;;;;;4.85;2.88;;;;;;;;;;5018796;28;20597;-67
2022/06/01 12:31:18;;;;;;;5.38;3.38;;;;;;;;;;5014747;28;20030;-66
2022/06/01 12:34:03;;;;;;;6.28;3.80;;;;;;;;;;5026312;28;20148;-66
2022/06/01 12:36:35;;;;;;;6.82;3.13;;;;;;;;;;5009375;28;20045;-67
2022/06/01 12:39:04;;;;;;;5.65;3.33;;;;;;;;;;5020183;28;20360;-66
2022/06/01 12:41:34;;;;;;;5.47;3.45;;;;;;;;;;5021433;28;20083;-67
2022/06/01 12:44:04;;;;;;;6.90;2.78;;;;;;;;;;5020031;28;20127;-66
2022/06/01 12:46:38;;;;;;;8.32;3.10;;;;;;;;;;5010610;28;20026;-67
2022/06/01 12:49:41;;;;;;;6.82;3.30;;;;;;;;;;5019813;28;20033;-65
2022/06/01 12:52:12;;;;;;;5.22;3.30;;;;;;;;;;4983234;28;20035;-66
2022/06/01 12:54:38;;;;;;;;;;;;;;;;;;5011993;28;20109;-68
2022/06/01 12:57:05;;;;;;;8.57;4.00;;;;;;;;;;5018450;28;20394;-65
2022/06/01 12:59:33;;;;;;;6.00;3.50;;;;;;;;;;5014550;28;20026;-65
2022/06/01 13:02:01;;;;;;;7.68;2.50;;;;;;;;;;4998513;28;20260;-66
2022/06/01 13:04:28;;;;;;;7.25;3.17;;;;;;;;;;5016727;28;20394;-66
2022/06/01 13:06:55;;;;;;;5.53;2.70;;;;;;;;;;5018655;28;20069;-65
2022/06/01 13:09:24;;;;;;;6.28;3.42;;;;;;;;;;5001418;28;20384;-66
2022/06/01 13:12:04;;;;;;;4.43;3.17;;;;;;;;;;5016433;28;20049;-67
2022/06/01 13:14:31;;;;;;;5.35;3.35;;;;;;;;;;5015002;28;20058;-66
2022/06/01 13:17:01;;;;;;;6.18;3.97;;;;;;;;;;5016534;28;20040;-67
2022/06/01 13:19:29;;;;;;;7.10;3.30;;;;;;;;;;5020064;28;20026;-66
2022/06/01 13:21:59;;;;;;;5.07;3.30;;;;;;;;;;5032683;28;20075;-67
2022/06/01 13:24:26;;;;;;;4.78;4.07;;;;;;;;;;5018787;28;20080;-66
2022/06/01 13:26:53;;;;;;;6.47;3.85;;;;;;;;;;5022962;28;20049;-67
2022/06/01 13:29:25;;;;;;;4.18;2.90;;;;;;;;;;5023802;28;20030;-66
2022/06/01 13:31:55;;;;;;;6.18;3.47;;;;;;;;;;5019122;28;20041;-66
2022/06/01 13:34:30;;;;;;;4.50;3.05;;;;;;;;;;5019790;28;20467;-66
2022/06/01 13:37:04;;;;;;;5.45;2.70;;;;;;;;;;5019341;28;20041;-68
2022/06/01 13:39:31;;;;;;;4.07;2.40;;;;;;;;;;5021144;28;20104;-65
2022/06/01 13:42:00;;;;;;;3.30;2.00;;;;;;;;;;5020826;28;20190;-67
2022/06/01 13:44:45;;;;;;;5.13;3.20;;;;;;;;;;5031462;28;20302;-65
2022/06/01 13:47:12;;;;;;;10.32;3.40;;;;;;;;;;5020397;28;20174;-66
2022/06/01 13:49:42;;;;;;;7.13;5.05;;;;;;;;;;5009685;28;20120;-67
2022/06/01 13:52:09;;;;;;;7.47;4.63;;;;;;;;;;5021209;28;20033;-65
2022/06/01 13:54:36;;;;;;;7.82;4.35;;;;;;;;;;5024035;28;20041;-64
2022/06/01 13:57:14;;;;;;;8.30;4.93;;;;;;;;;;5020025;28;20714;-65
2022/06/01 13:59:50;;;;;;;5.00;3.55;;;;;;;;;;5021231;28;20049;-66
2022/06/01 14:02:22;;;;;;;7.55;4.85;;;;;;;;;;5015306;28;20038;-66
2022/06/01 14:04:50;;;;;;;6.40;4.80;;;;;;;;;;5020054;28;20106;-66
2022/06/01 14:07:19;;;;;;;7.03;4.15;;;;;;;;;;5018997;28;20150;-65
2022/06/01 14:09:51;;;;;;;4.47;3.30;;;;;;;;;;5017095;28;20029;-66
2022/06/01 14:12:18;;;;;;;5.85;3.15;;;;;;;;;;5019998;28;20064;-65
2022/06/01 14:14:45;;;;;;;7.32;3.72;;;;;;;;;;5020276;28;20057;-65
2022/06/01 14:17:12;;;;;;;5.22;2.97;;;;;;;;;;5019058;28;20472;-66
2022/06/01 14:19:39;;;;;;;4.90;2.20;;;;;;;;;;5017454;28;20034;-64
2022/06/01 14:22:06;;;;;;;3.72;2.25;;;;;;;;;;5017330;28;20471;-66
2022/06/01 14:30:01;;;;;;;6.75;5.10;;;;;;;;;;5021038;28;20045;-65
2022/06/01 14:32:27;;;;;;;6.43;4.60;;;;;;;;;;5004808;28;20043;-65
2022/06/01 14:34:54;;;;;;;12.07;5.25;;;;;;;;;;5017347;28;20125;-65
2022/06/01 14:37:20;;;;;;;11.43;5.70;;;;;;;;;;5021128;28;20036;-65
2022/06/01 14:39:46;;;;;;;7.00;3.72;;;;;;;;;;5000485;28;20053;-63
2022/06/01 14:42:12;;;;;;;8.18;2.67;;;;;;;;;;5020626;28;20133;-64
2022/06/01 14:44:38;;;;;;;9.32;3.40;;;;;;;;;;4999737;28;20037;-66
2022/06/01 14:47:04;;;;;;;10.55;2.95;;;;;;;;;;5021159;28;20498;-65
2022/06/01 14:49:30;;;;;;;4.60;2.67;;;;;;;;;;4998774;28;20026;-65
2022/06/01 14:52:01;;;;;;;6.18;2.85;;;;;;;;;;5019870;28;20033;-64
2022/06/01 14:54:29;;;;;;;5.43;2.78;;;;;;;;;;5024639;28;20393;-64
2022/06/01 14:56:55;;;;;;;11.50;3.40;;;;;;;;;;5023659;28;20029;-65
2022/06/01 14:59:22;;;;;;;7.40;3.78;;;;;;;;;;5021843;28;20057;-66
2022/06/01 15:01:49;;;;;;;5.80;3.42;;;;;;;;;;5022534;28;20029;-65
2022/06/01 15:04:19;;;;;;;9.73;3.85;;;;;;;;;;5023149;28;20089;-65
2022/06/01 15:06:45;;;;;;;6.97;3.70;;;;;;;;;;5009430;28;20050;-65
2022/06/01 15:09:14;;;;;;;4.90;3.22;;;;;;;;;;5019292;28;20429;-66
2022/06/01 15:11:41;;;;;;;4.68;3.70;;;;;;;;;;5025038;28;21823;-66
2022/06/01 15:14:12;;;;;;;6.78;4.13;;;;;;;;;;5009243;28;20022;-67
2022/06/01 15:16:39;;;;;;;9.23;5.38;;;;;;;;;;5006686;28;20029;-66
2022/06/01 15:19:06;;;;;;;7.82;4.70;;;;;;;;;;5027849;28;20030;-66
2022/06/01 15:21:32;;;;;;;8.23;5.13;;;;;;;;;;5021220;28;20052;-67
2022/06/01 15:23:58;;;;;;;7.03;4.57;;;;;;;;;;5024683;28;20037;-66
2022/06/01 15:26:25;;;;;;;5.30;3.15;;;;;;;;;;5025242;28;20266;-66